sensor_id;sensor_type;location;lat;lon;timestamp;temperature;humidity
53422;DHT22;39319;52.944;5.928;2022-11-15T00:00:18;8.90;99.90
53422;DHT22;39319;52.944;5.928;2022-11-15T00:02:44;8.90;99.90
53422;DHT22;39319;52.944;5.928;2022-11-15T00:05:10;9.00;99.90
53422;DHT22;39319;52.944;5.928;2022-11-15T00:07:35;9.00;99.90
53422;DHT22;39319;52.944;5.928;2022-11-15T00:10:02;9.00;99.90
53422;DHT22;39319;52.944;5.928;2022-11-15T00:12:28;9.00;99.90
53422;DHT22;39319;52.944;5.928;2022-11-15T00:14:54;9.00;99.90
53422;DHT22;39319;52.944;5.928;2022-11-15T00:17:20;9.00;99.90
53422;DHT22;39319;52.944;5.928;2022-11-15T00:19:46;8.90;99.90
53422;DHT22;39319;52.944;5.928;2022-11-15T00:22:14;9.00;99.90
53422;DHT22;39319;52.944;5.928;2022-11-15T00:24:40;9.00;99.90
53422;DHT22;39319;52.944;5.928;2022-11-15T00:27:05;9.10;99.90
53422;DHT22;39319;52.944;5.928;2022-11-15T00:29:31;9.10;99.90
53422;DHT22;39319;52.944;5.928;2022-11-15T00:31:57;9.10;99.90
53422;DHT22;39319;52.944;5.928;2022-11-15T00:34:23;9.10;99.90
53422;DHT22;39319;52.944;5.928;2022-11-15T00:36:51;9.10;99.90
53422;DHT22;39319;52.944;5.928;2022-11-15T00:39:17;9.10;99.90
53422;DHT22;39319;52.944;5.928;2022-11-15T00:41:43;9.10;99.90
53422;DHT22;39319;52.944;5.928;2022-11-15T00:44:09;9.10;99.90
53422;DHT22;39319;52.944;5.928;2022-11-15T00:46:35;9.10;99.90
53422;DHT22;39319;52.944;5.928;2022-11-15T00:49:00;9.00;99.90
53422;DHT22;39319;52.944;5.928;2022-11-15T00:51:27;9.00;99.90
53422;DHT22;39319;52.944;5.928;2022-11-15T00:53:55;9.00;99.90
53422;DHT22;39319;52.944;5.928;2022-11-15T00:56:21;9.00;99.90
53422;DHT22;39319;52.944;5.928;2022-11-15T00:58:47;9.00;99.90
53422;DHT22;39319;52.944;5.928;2022-11-15T01:01:14;8.90;99.90
53422;DHT22;39319;52.944;5.928;2022-11-15T01:03:40;8.90;99.90
53422;DHT22;39319;52.944;5.928;2022-11-15T01:06:07;8.90;99.90
53422;DHT22;39319;52.944;5.928;2022-11-15T01:08:34;8.90;99.90
53422;DHT22;39319;52.944;5.928;2022-11-15T01:11:04;8.90;99.90
53422;DHT22;39319;52.944;5.928;2022-11-15T01:13:32;8.80;99.90
53422;DHT22;39319;52.944;5.928;2022-11-15T01:15:59;8.80;99.90
53422;DHT22;39319;52.944;5.928;2022-11-15T01:18:30;8.80;99.90
53422;DHT22;39319;52.944;5.928;2022-11-15T01:20:56;8.90;99.90
53422;DHT22;39319;52.944;5.928;2022-11-15T01:23:22;8.80;99.90
53422;DHT22;39319;52.944;5.928;2022-11-15T01:25:48;8.90;99.90
53422;DHT22;39319;52.944;5.928;2022-11-15T01:28:13;8.80;99.90
53422;DHT22;39319;52.944;5.928;2022-11-15T01:30:40;8.70;99.90
53422;DHT22;39319;52.944;5.928;2022-11-15T01:33:05;8.70;99.90
53422;DHT22;39319;52.944;5.928;2022-11-15T01:35:31;8.70;99.90
53422;DHT22;39319;52.944;5.928;2022-11-15T01:37:57;8.70;99.90
53422;DHT22;39319;52.944;5.928;2022-11-15T01:40:23;8.70;99.90
53422;DHT22;39319;52.944;5.928;2022-11-15T01:42:49;8.70;99.90
53422;DHT22;39319;52.944;5.928;2022-11-15T01:45:17;8.70;99.90
53422;DHT22;39319;52.944;5.928;2022-11-15T01:47:48;8.70;99.90
53422;DHT22;39319;52.944;5.928;2022-11-15T01:50:22;8.70;99.90
53422;DHT22;39319;52.944;5.928;2022-11-15T01:52:49;8.60;99.90
53422;DHT22;39319;52.944;5.928;2022-11-15T01:55:18;8.70;99.90
53422;DHT22;39319;52.944;5.928;2022-11-15T01:57:47;8.70;99.90
53422;DHT22;39319;52.944;5.928;2022-11-15T02:00:14;8.70;99.90
53422;DHT22;39319;52.944;5.928;2022-11-15T02:02:40;8.70;99.90
53422;DHT22;39319;52.944;5.928;2022-11-15T02:05:07;8.70;99.90
53422;DHT22;39319;52.944;5.928;2022-11-15T02:07:35;8.70;99.90
53422;DHT22;39319;52.944;5.928;2022-11-15T02:10:13;8.80;99.90
53422;DHT22;39319;52.944;5.928;2022-11-15T02:12:40;8.70;99.90
53422;DHT22;39319;52.944;5.928;2022-11-15T02:15:08;8.70;99.90
53422;DHT22;39319;52.944;5.928;2022-11-15T02:18:03;8.70;99.90
53422;DHT22;39319;52.944;5.928;2022-11-15T02:20:44;8.70;99.90
53422;DHT22;39319;52.944;5.928;2022-11-15T02:29:09;8.70;99.90
53422;DHT22;39319;52.944;5.928;2022-11-15T02:40:07;8.70;99.90
53422;DHT22;39319;52.944;5.928;2022-11-15T02:42:41;8.70;99.90
53422;DHT22;39319;52.944;5.928;2022-11-15T02:45:30;8.80;99.90
53422;DHT22;39319;52.944;5.928;2022-11-15T02:47:59;8.80;99.90
53422;DHT22;39319;52.944;5.928;2022-11-15T02:50:29;8.80;99.90
53422;DHT22;39319;52.944;5.928;2022-11-15T02:52:55;8.80;99.90
53422;DHT22;39319;52.944;5.928;2022-11-15T02:55:35;8.80;99.90
53422;DHT22;39319;52.944;5.928;2022-11-15T03:09:04;8.80;99.90
53422;DHT22;39319;52.944;5.928;2022-11-15T03:11:36;8.90;99.90
53422;DHT22;39319;52.944;5.928;2022-11-15T03:14:21;8.90;99.90
53422;DHT22;39319;52.944;5.928;2022-11-15T03:21:56;8.90;99.90
53422;DHT22;39319;52.944;5.928;2022-11-15T03:24:23;8.90;99.90
53422;DHT22;39319;52.944;5.928;2022-11-15T03:26:53;9.00;99.90
53422;DHT22;39319;52.944;5.928;2022-11-15T03:29:24;9.00;99.90
53422;DHT22;39319;52.944;5.928;2022-11-15T03:31:55;9.00;99.90
53422;DHT22;39319;52.944;5.928;2022-11-15T03:34:35;9.00;99.90
53422;DHT22;39319;52.944;5.928;2022-11-15T03:37:04;9.00;99.90
53422;DHT22;39319;52.944;5.928;2022-11-15T03:39:30;9.00;99.90
53422;DHT22;39319;52.944;5.928;2022-11-15T03:42:05;9.00;99.90
53422;DHT22;39319;52.944;5.928;2022-11-15T03:47:41;9.10;99.90
53422;DHT22;39319;52.944;5.928;2022-11-15T03:50:14;9.00;99.90
53422;DHT22;39319;52.944;5.928;2022-11-15T03:52:42;9.10;99.90
53422;DHT22;39319;52.944;5.928;2022-11-15T03:55:12;9.10;99.90
53422;DHT22;39319;52.944;5.928;2022-11-15T03:57:39;9.10;99.90
53422;DHT22;39319;52.944;5.928;2022-11-15T04:00:08;9.10;99.90
53422;DHT22;39319;52.944;5.928;2022-11-15T04:02:34;9.10;99.90
53422;DHT22;39319;52.944;5.928;2022-11-15T04:04:59;9.20;99.90
53422;DHT22;39319;52.944;5.928;2022-11-15T04:07:26;9.20;99.90
53422;DHT22;39319;52.944;5.928;2022-11-15T04:09:54;9.20;99.90
53422;DHT22;39319;52.944;5.928;2022-11-15T04:12:33;9.20;99.90
53422;DHT22;39319;52.944;5.928;2022-11-15T04:15:08;9.20;99.90
53422;DHT22;39319;52.944;5.928;2022-11-15T04:17:45;9.30;99.90
53422;DHT22;39319;52.944;5.928;2022-11-15T04:22:59;9.30;99.90
53422;DHT22;39319;52.944;5.928;2022-11-15T04:25:45;9.30;99.90
53422;DHT22;39319;52.944;5.928;2022-11-15T04:28:11;9.30;99.90
53422;DHT22;39319;52.944;5.928;2022-11-15T04:30:42;9.40;99.90
53422;DHT22;39319;52.944;5.928;2022-11-15T04:33:07;9.40;99.90
53422;DHT22;39319;52.944;5.928;2022-11-15T04:35:33;9.40;99.90
53422;DHT22;39319;52.944;5.928;2022-11-15T04:38:00;9.40;99.90
53422;DHT22;39319;52.944;5.928;2022-11-15T04:40:26;9.40;99.90
53422;DHT22;39319;52.944;5.928;2022-11-15T04:42:52;9.40;99.90
53422;DHT22;39319;52.944;5.928;2022-11-15T04:45:18;9.50;99.90
53422;DHT22;39319;52.944;5.928;2022-11-15T04:47:45;9.50;99.90
53422;DHT22;39319;52.944;5.928;2022-11-15T04:50:12;9.50;99.90
53422;DHT22;39319;52.944;5.928;2022-11-15T04:52:43;9.50;99.90
53422;DHT22;39319;52.944;5.928;2022-11-15T04:55:10;9.50;99.90
53422;DHT22;39319;52.944;5.928;2022-11-15T04:57:36;9.60;99.90
53422;DHT22;39319;52.944;5.928;2022-11-15T05:00:10;9.60;99.90
53422;DHT22;39319;52.944;5.928;2022-11-15T05:02:37;9.60;99.90
53422;DHT22;39319;52.944;5.928;2022-11-15T05:05:22;9.60;99.90
53422;DHT22;39319;52.944;5.928;2022-11-15T05:07:49;9.60;99.90
53422;DHT22;39319;52.944;5.928;2022-11-15T05:10:15;9.70;99.90
53422;DHT22;39319;52.944;5.928;2022-11-15T05:12:43;9.70;99.90
53422;DHT22;39319;52.944;5.928;2022-11-15T05:15:09;9.70;99.90
53422;DHT22;39319;52.944;5.928;2022-11-15T05:17:35;9.80;99.90
53422;DHT22;39319;52.944;5.928;2022-11-15T05:20:01;9.80;99.90
53422;DHT22;39319;52.944;5.928;2022-11-15T05:22:27;9.80;99.90
53422;DHT22;39319;52.944;5.928;2022-11-15T05:24:53;9.80;99.90
53422;DHT22;39319;52.944;5.928;2022-11-15T05:27:18;9.80;99.90
53422;DHT22;39319;52.944;5.928;2022-11-15T05:29:44;9.80;99.90
53422;DHT22;39319;52.944;5.928;2022-11-15T05:32:11;9.90;99.90
53422;DHT22;39319;52.944;5.928;2022-11-15T05:34:37;9.90;99.90
53422;DHT22;39319;52.944;5.928;2022-11-15T05:37:04;9.90;99.90
53422;DHT22;39319;52.944;5.928;2022-11-15T05:39:30;9.90;99.90
53422;DHT22;39319;52.944;5.928;2022-11-15T05:42:09;9.90;99.90
53422;DHT22;39319;52.944;5.928;2022-11-15T05:44:38;10.00;99.90
53422;DHT22;39319;52.944;5.928;2022-11-15T05:47:10;10.00;99.90
53422;DHT22;39319;52.944;5.928;2022-11-15T05:49:39;10.00;99.90
53422;DHT22;39319;52.944;5.928;2022-11-15T05:52:12;10.00;99.90
53422;DHT22;39319;52.944;5.928;2022-11-15T05:54:39;10.00;99.90
53422;DHT22;39319;52.944;5.928;2022-11-15T05:57:05;10.00;99.90
53422;DHT22;39319;52.944;5.928;2022-11-15T05:59:32;10.10;99.90
53422;DHT22;39319;52.944;5.928;2022-11-15T06:01:59;10.10;99.90
53422;DHT22;39319;52.944;5.928;2022-11-15T06:04:25;10.10;99.90
53422;DHT22;39319;52.944;5.928;2022-11-15T06:06:50;10.10;99.90
53422;DHT22;39319;52.944;5.928;2022-11-15T06:09:19;10.10;99.90
53422;DHT22;39319;52.944;5.928;2022-11-15T06:11:45;10.10;99.90
53422;DHT22;39319;52.944;5.928;2022-11-15T06:14:11;10.20;99.90
53422;DHT22;39319;52.944;5.928;2022-11-15T06:16:36;10.20;99.90
53422;DHT22;39319;52.944;5.928;2022-11-15T06:19:02;10.20;99.90
53422;DHT22;39319;52.944;5.928;2022-11-15T06:21:28;10.20;99.90
53422;DHT22;39319;52.944;5.928;2022-11-15T06:23:55;10.30;99.90
53422;DHT22;39319;52.944;5.928;2022-11-15T06:26:20;10.20;99.90
53422;DHT22;39319;52.944;5.928;2022-11-15T06:28:46;10.30;99.90
53422;DHT22;39319;52.944;5.928;2022-11-15T06:31:14;10.30;99.90
53422;DHT22;39319;52.944;5.928;2022-11-15T06:33:40;10.30;99.90
53422;DHT22;39319;52.944;5.928;2022-11-15T06:36:08;10.30;99.90
53422;DHT22;39319;52.944;5.928;2022-11-15T06:38:35;10.30;99.90
53422;DHT22;39319;52.944;5.928;2022-11-15T06:41:02;10.40;99.90
53422;DHT22;39319;52.944;5.928;2022-11-15T06:43:32;10.40;99.90
53422;DHT22;39319;52.944;5.928;2022-11-15T06:46:02;10.40;99.90
53422;DHT22;39319;52.944;5.928;2022-11-15T06:48:32;10.40;99.90
53422;DHT22;39319;52.944;5.928;2022-11-15T06:51:03;10.40;99.90
53422;DHT22;39319;52.944;5.928;2022-11-15T06:53:30;10.50;99.90
53422;DHT22;39319;52.944;5.928;2022-11-15T06:56:00;10.50;99.90
53422;DHT22;39319;52.944;5.928;2022-11-15T06:58:26;10.50;99.90
53422;DHT22;39319;52.944;5.928;2022-11-15T07:00:52;10.50;99.90
53422;DHT22;39319;52.944;5.928;2022-11-15T07:03:18;10.50;99.90
53422;DHT22;39319;52.944;5.928;2022-11-15T07:05:54;10.60;99.90
53422;DHT22;39319;52.944;5.928;2022-11-15T07:08:20;10.60;99.90
53422;DHT22;39319;52.944;5.928;2022-11-15T07:10:48;10.60;99.90
53422;DHT22;39319;52.944;5.928;2022-11-15T07:13:15;10.60;99.90
53422;DHT22;39319;52.944;5.928;2022-11-15T07:15:41;10.60;99.90
53422;DHT22;39319;52.944;5.928;2022-11-15T07:18:08;10.60;99.90
53422;DHT22;39319;52.944;5.928;2022-11-15T07:20:35;10.60;99.90
53422;DHT22;39319;52.944;5.928;2022-11-15T07:23:02;10.60;99.90
53422;DHT22;39319;52.944;5.928;2022-11-15T07:25:28;10.70;99.90
53422;DHT22;39319;52.944;5.928;2022-11-15T07:27:58;10.70;99.90
53422;DHT22;39319;52.944;5.928;2022-11-15T07:30:25;10.70;99.90
53422;DHT22;39319;52.944;5.928;2022-11-15T07:32:55;10.70;99.90
53422;DHT22;39319;52.944;5.928;2022-11-15T07:35:24;10.70;99.90
53422;DHT22;39319;52.944;5.928;2022-11-15T07:38:01;10.70;99.90
53422;DHT22;39319;52.944;5.928;2022-11-15T07:40:28;10.70;99.90
53422;DHT22;39319;52.944;5.928;2022-11-15T07:43:06;10.70;99.90
53422;DHT22;39319;52.944;5.928;2022-11-15T07:45:33;10.80;99.90
53422;DHT22;39319;52.944;5.928;2022-11-15T07:48:00;10.80;99.90
53422;DHT22;39319;52.944;5.928;2022-11-15T07:50:26;10.80;99.90
53422;DHT22;39319;52.944;5.928;2022-11-15T07:52:55;10.80;99.90
53422;DHT22;39319;52.944;5.928;2022-11-15T07:55:22;10.80;99.90
53422;DHT22;39319;52.944;5.928;2022-11-15T07:57:48;10.80;99.90
53422;DHT22;39319;52.944;5.928;2022-11-15T08:00:15;10.80;99.90
53422;DHT22;39319;52.944;5.928;2022-11-15T08:02:42;10.90;99.90
53422;DHT22;39319;52.944;5.928;2022-11-15T08:05:09;10.90;99.90
53422;DHT22;39319;52.944;5.928;2022-11-15T08:07:35;10.90;99.90
53422;DHT22;39319;52.944;5.928;2022-11-15T08:10:00;10.90;99.90
53422;DHT22;39319;52.944;5.928;2022-11-15T08:12:27;10.90;99.90
53422;DHT22;39319;52.944;5.928;2022-11-15T08:14:55;11.00;99.90
53422;DHT22;39319;52.944;5.928;2022-11-15T08:17:22;11.00;99.90
53422;DHT22;39319;52.944;5.928;2022-11-15T08:19:48;11.00;99.90
53422;DHT22;39319;52.944;5.928;2022-11-15T08:22:14;11.00;99.90
53422;DHT22;39319;52.944;5.928;2022-11-15T08:24:39;11.00;99.90
53422;DHT22;39319;52.944;5.928;2022-11-15T08:27:08;11.00;99.90
53422;DHT22;39319;52.944;5.928;2022-11-15T08:29:42;11.00;99.90
53422;DHT22;39319;52.944;5.928;2022-11-15T08:32:09;11.00;99.90
53422;DHT22;39319;52.944;5.928;2022-11-15T08:34:36;11.00;99.90
53422;DHT22;39319;52.944;5.928;2022-11-15T08:37:02;11.10;99.90
53422;DHT22;39319;52.944;5.928;2022-11-15T08:39:27;11.10;99.90
53422;DHT22;39319;52.944;5.928;2022-11-15T08:41:53;11.10;99.90
53422;DHT22;39319;52.944;5.928;2022-11-15T08:44:22;11.10;99.90
53422;DHT22;39319;52.944;5.928;2022-11-15T08:46:49;11.10;99.90
53422;DHT22;39319;52.944;5.928;2022-11-15T08:49:16;11.10;99.90
53422;DHT22;39319;52.944;5.928;2022-11-15T08:51:45;11.20;99.90
53422;DHT22;39319;52.944;5.928;2022-11-15T08:54:11;11.20;99.90
53422;DHT22;39319;52.944;5.928;2022-11-15T08:56:37;11.20;99.90
53422;DHT22;39319;52.944;5.928;2022-11-15T08:59:03;11.20;99.90
53422;DHT22;39319;52.944;5.928;2022-11-15T09:01:28;11.30;99.90
53422;DHT22;39319;52.944;5.928;2022-11-15T09:03:54;11.30;99.90
53422;DHT22;39319;52.944;5.928;2022-11-15T09:06:20;11.30;99.90
53422;DHT22;39319;52.944;5.928;2022-11-15T09:08:46;11.30;99.90
53422;DHT22;39319;52.944;5.928;2022-11-15T09:11:13;11.40;99.90
53422;DHT22;39319;52.944;5.928;2022-11-15T09:13:45;11.40;99.90
53422;DHT22;39319;52.944;5.928;2022-11-15T09:16:11;11.40;99.90
53422;DHT22;39319;52.944;5.928;2022-11-15T09:18:38;11.50;99.90
53422;DHT22;39319;52.944;5.928;2022-11-15T09:21:07;11.50;99.90
53422;DHT22;39319;52.944;5.928;2022-11-15T09:23:33;11.50;99.90
53422;DHT22;39319;52.944;5.928;2022-11-15T09:26:00;11.60;99.90
53422;DHT22;39319;52.944;5.928;2022-11-15T09:28:30;11.60;99.90
53422;DHT22;39319;52.944;5.928;2022-11-15T09:31:00;11.60;99.90
53422;DHT22;39319;52.944;5.928;2022-11-15T09:33:27;11.60;99.90
53422;DHT22;39319;52.944;5.928;2022-11-15T09:36:04;11.60;99.90
53422;DHT22;39319;52.944;5.928;2022-11-15T09:38:30;11.70;99.90
53422;DHT22;39319;52.944;5.928;2022-11-15T09:48:50;11.80;99.90
53422;DHT22;39319;52.944;5.928;2022-11-15T09:51:44;11.80;99.90
53422;DHT22;39319;52.944;5.928;2022-11-15T09:57:47;11.90;99.90
53422;DHT22;39319;52.944;5.928;2022-11-15T09:59:58;12.00;99.90
53422;DHT22;39319;52.944;5.928;2022-11-15T10:05:12;12.00;99.90
53422;DHT22;39319;52.944;5.928;2022-11-15T10:10:45;12.00;99.90
53422;DHT22;39319;52.944;5.928;2022-11-15T10:13:25;12.00;99.90
53422;DHT22;39319;52.944;5.928;2022-11-15T10:16:02;12.10;99.90
53422;DHT22;39319;52.944;5.928;2022-11-15T10:18:45;12.10;99.90
53422;DHT22;39319;52.944;5.928;2022-11-15T10:21:22;12.10;99.90
53422;DHT22;39319;52.944;5.928;2022-11-15T10:23:49;12.10;99.90
53422;DHT22;39319;52.944;5.928;2022-11-15T10:26:17;12.20;99.90
53422;DHT22;39319;52.944;5.928;2022-11-15T10:28:43;12.20;99.90
53422;DHT22;39319;52.944;5.928;2022-11-15T10:31:27;12.30;99.90
53422;DHT22;39319;52.944;5.928;2022-11-15T10:34:26;12.30;99.90
53422;DHT22;39319;52.944;5.928;2022-11-15T10:36:59;12.30;99.90
53422;DHT22;39319;52.944;5.928;2022-11-15T10:39:27;12.30;99.90
53422;DHT22;39319;52.944;5.928;2022-11-15T10:41:54;12.40;99.90
53422;DHT22;39319;52.944;5.928;2022-11-15T10:44:26;12.40;99.90
53422;DHT22;39319;52.944;5.928;2022-11-15T10:49:24;12.30;99.90
53422;DHT22;39319;52.944;5.928;2022-11-15T10:51:59;12.40;99.90
53422;DHT22;39319;52.944;5.928;2022-11-15T10:54:50;12.40;99.90
53422;DHT22;39319;52.944;5.928;2022-11-15T10:57:23;12.40;99.90
53422;DHT22;39319;52.944;5.928;2022-11-15T10:59:56;12.40;99.90
53422;DHT22;39319;52.944;5.928;2022-11-15T11:02:35;12.40;99.90
53422;DHT22;39319;52.944;5.928;2022-11-15T11:05:04;12.40;99.90
53422;DHT22;39319;52.944;5.928;2022-11-15T11:07:32;12.40;99.90
53422;DHT22;39319;52.944;5.928;2022-11-15T11:10:18;12.50;99.90
53422;DHT22;39319;52.944;5.928;2022-11-15T11:12:45;12.50;99.90
53422;DHT22;39319;52.944;5.928;2022-11-15T11:15:13;12.50;99.90
53422;DHT22;39319;52.944;5.928;2022-11-15T11:18:06;12.50;99.90
53422;DHT22;39319;52.944;5.928;2022-11-15T11:21:05;12.50;99.90
53422;DHT22;39319;52.944;5.928;2022-11-15T11:23:50;12.50;99.90
53422;DHT22;39319;52.944;5.928;2022-11-15T11:26:42;12.60;99.90
53422;DHT22;39319;52.944;5.928;2022-11-15T11:40:16;12.70;99.90
53422;DHT22;39319;52.944;5.928;2022-11-15T11:43:04;12.70;99.90
53422;DHT22;39319;52.944;5.928;2022-11-15T11:51:36;13.50;99.90
53422;DHT22;39319;52.944;5.928;2022-11-15T11:54:23;13.70;99.90
53422;DHT22;39319;52.944;5.928;2022-11-15T11:56:54;14.00;99.90
53422;DHT22;39319;52.944;5.928;2022-11-15T11:59:49;14.00;99.90
53422;DHT22;39319;52.944;5.928;2022-11-15T12:02:25;14.10;99.90
53422;DHT22;39319;52.944;5.928;2022-11-15T12:05:30;14.00;99.90
53422;DHT22;39319;52.944;5.928;2022-11-15T12:07:54;14.00;99.90
53422;DHT22;39319;52.944;5.928;2022-11-15T12:10:29;14.00;99.90
53422;DHT22;39319;52.944;5.928;2022-11-15T12:13:04;13.90;99.90
53422;DHT22;39319;52.944;5.928;2022-11-15T12:15:37;13.80;99.90
53422;DHT22;39319;52.944;5.928;2022-11-15T12:18:07;14.00;99.90
53422;DHT22;39319;52.944;5.928;2022-11-15T12:20:47;14.10;99.90
53422;DHT22;39319;52.944;5.928;2022-11-15T12:23:40;14.30;99.90
53422;DHT22;39319;52.944;5.928;2022-11-15T12:26:20;14.50;99.90
53422;DHT22;39319;52.944;5.928;2022-11-15T12:28:51;14.70;99.90
53422;DHT22;39319;52.944;5.928;2022-11-15T12:31:28;14.70;99.90
53422;DHT22;39319;52.944;5.928;2022-11-15T12:34:47;14.70;99.90
53422;DHT22;39319;52.944;5.928;2022-11-15T12:36:50;14.70;99.90
53422;DHT22;39319;52.944;5.928;2022-11-15T12:39:19;14.60;99.90
53422;DHT22;39319;52.944;5.928;2022-11-15T12:59:53;14.80;99.90
53422;DHT22;39319;52.944;5.928;2022-11-15T13:02:42;14.80;99.90
53422;DHT22;39319;52.944;5.928;2022-11-15T13:30:36;15.20;99.90
53422;DHT22;39319;52.944;5.928;2022-11-15T13:33:16;15.30;99.90
53422;DHT22;39319;52.944;5.928;2022-11-15T13:35:47;15.40;99.90
53422;DHT22;39319;52.944;5.928;2022-11-15T13:38:39;15.40;99.80
53422;DHT22;39319;52.944;5.928;2022-11-15T13:41:23;15.30;99.90
53422;DHT22;39319;52.944;5.928;2022-11-15T13:43:50;15.30;99.90
53422;DHT22;39319;52.944;5.928;2022-11-15T13:46:19;15.20;99.90
53422;DHT22;39319;52.944;5.928;2022-11-15T13:48:47;15.10;99.90
53422;DHT22;39319;52.944;5.928;2022-11-15T13:54:03;14.90;99.90
53422;DHT22;39319;52.944;5.928;2022-11-15T13:56:53;14.70;99.90
53422;DHT22;39319;52.944;5.928;2022-11-15T14:01:52;14.50;99.90
53422;DHT22;39319;52.944;5.928;2022-11-15T14:04:21;14.40;99.90
53422;DHT22;39319;52.944;5.928;2022-11-15T14:06:58;14.40;99.90
53422;DHT22;39319;52.944;5.928;2022-11-15T14:12:20;14.20;99.90
53422;DHT22;39319;52.944;5.928;2022-11-15T14:14:47;14.10;99.90
53422;DHT22;39319;52.944;5.928;2022-11-15T14:17:32;14.00;99.90
53422;DHT22;39319;52.944;5.928;2022-11-15T14:19:58;13.90;99.90
53422;DHT22;39319;52.944;5.928;2022-11-15T14:22:25;13.80;99.90
53422;DHT22;39319;52.944;5.928;2022-11-15T14:25:19;13.70;99.90
53422;DHT22;39319;52.944;5.928;2022-11-15T14:28:09;13.60;99.90
53422;DHT22;39319;52.944;5.928;2022-11-15T14:30:35;13.60;99.90
53422;DHT22;39319;52.944;5.928;2022-11-15T14:33:11;13.40;99.90
53422;DHT22;39319;52.944;5.928;2022-11-15T14:35:42;13.40;99.90
53422;DHT22;39319;52.944;5.928;2022-11-15T14:38:09;13.40;99.90
53422;DHT22;39319;52.944;5.928;2022-11-15T14:40:35;13.30;99.90
53422;DHT22;39319;52.944;5.928;2022-11-15T14:43:01;13.30;99.90
53422;DHT22;39319;52.944;5.928;2022-11-15T14:45:27;13.20;99.90
53422;DHT22;39319;52.944;5.928;2022-11-15T14:47:53;13.20;99.90
53422;DHT22;39319;52.944;5.928;2022-11-15T14:50:21;13.20;99.90
53422;DHT22;39319;52.944;5.928;2022-11-15T14:52:47;13.20;99.90
53422;DHT22;39319;52.944;5.928;2022-11-15T14:55:26;13.10;99.90
53422;DHT22;39319;52.944;5.928;2022-11-15T14:57:53;13.10;99.90
53422;DHT22;39319;52.944;5.928;2022-11-15T15:00:19;13.10;99.90
53422;DHT22;39319;52.944;5.928;2022-11-15T15:02:46;13.00;99.90
53422;DHT22;39319;52.944;5.928;2022-11-15T15:05:30;13.00;99.90
53422;DHT22;39319;52.944;5.928;2022-11-15T15:07:56;12.90;99.90
53422;DHT22;39319;52.944;5.928;2022-11-15T15:10:22;12.90;99.90
53422;DHT22;39319;52.944;5.928;2022-11-15T15:12:48;12.90;99.90
53422;DHT22;39319;52.944;5.928;2022-11-15T15:15:16;12.80;99.90
53422;DHT22;39319;52.944;5.928;2022-11-15T15:17:43;12.80;99.90
53422;DHT22;39319;52.944;5.928;2022-11-15T15:20:10;12.70;99.90
53422;DHT22;39319;52.944;5.928;2022-11-15T15:22:36;12.70;99.90
53422;DHT22;39319;52.944;5.928;2022-11-15T15:25:02;12.70;99.90
53422;DHT22;39319;52.944;5.928;2022-11-15T15:27:30;12.60;99.90
53422;DHT22;39319;52.944;5.928;2022-11-15T15:29:55;12.50;99.90
53422;DHT22;39319;52.944;5.928;2022-11-15T15:32:21;12.50;99.90
53422;DHT22;39319;52.944;5.928;2022-11-15T15:34:48;12.40;99.90
53422;DHT22;39319;52.944;5.928;2022-11-15T15:37:23;12.40;99.90
53422;DHT22;39319;52.944;5.928;2022-11-15T15:39:53;12.30;99.90
53422;DHT22;39319;52.944;5.928;2022-11-15T15:42:21;12.30;99.90
53422;DHT22;39319;52.944;5.928;2022-11-15T15:44:48;12.30;99.90
53422;DHT22;39319;52.944;5.928;2022-11-15T15:47:20;12.20;99.90
53422;DHT22;39319;52.944;5.928;2022-11-15T15:49:47;12.20;99.90
53422;DHT22;39319;52.944;5.928;2022-11-15T15:52:13;12.10;99.90
53422;DHT22;39319;52.944;5.928;2022-11-15T15:54:39;12.10;99.90
53422;DHT22;39319;52.944;5.928;2022-11-15T15:57:06;12.10;99.90
53422;DHT22;39319;52.944;5.928;2022-11-15T15:59:32;12.10;99.90
53422;DHT22;39319;52.944;5.928;2022-11-15T16:01:58;12.00;99.90
53422;DHT22;39319;52.944;5.928;2022-11-15T16:04:23;12.00;99.90
53422;DHT22;39319;52.944;5.928;2022-11-15T16:06:50;12.10;99.90
53422;DHT22;39319;52.944;5.928;2022-11-15T16:09:19;12.10;99.90
53422;DHT22;39319;52.944;5.928;2022-11-15T16:12:04;12.10;99.90
53422;DHT22;39319;52.944;5.928;2022-11-15T16:14:31;12.10;99.90
53422;DHT22;39319;52.944;5.928;2022-11-15T16:16:57;12.10;99.90
53422;DHT22;39319;52.944;5.928;2022-11-15T16:19:23;12.10;99.90
53422;DHT22;39319;52.944;5.928;2022-11-15T16:21:50;12.10;99.90
53422;DHT22;39319;52.944;5.928;2022-11-15T16:24:18;12.10;99.90
53422;DHT22;39319;52.944;5.928;2022-11-15T16:26:44;12.20;99.90
53422;DHT22;39319;52.944;5.928;2022-11-15T16:29:10;12.20;99.90
53422;DHT22;39319;52.944;5.928;2022-11-15T16:31:36;12.20;99.90
53422;DHT22;39319;52.944;5.928;2022-11-15T16:34:02;12.20;99.90
53422;DHT22;39319;52.944;5.928;2022-11-15T16:36:31;12.20;99.90
53422;DHT22;39319;52.944;5.928;2022-11-15T16:38:58;12.20;99.90
53422;DHT22;39319;52.944;5.928;2022-11-15T16:41:24;12.20;99.90
53422;DHT22;39319;52.944;5.928;2022-11-15T16:43:51;12.20;99.90
53422;DHT22;39319;52.944;5.928;2022-11-15T16:46:20;12.20;99.90
53422;DHT22;39319;52.944;5.928;2022-11-15T16:48:46;12.20;99.90
53422;DHT22;39319;52.944;5.928;2022-11-15T16:51:12;12.20;99.90
53422;DHT22;39319;52.944;5.928;2022-11-15T16:53:38;12.20;99.90
53422;DHT22;39319;52.944;5.928;2022-11-15T16:56:28;12.30;99.90
53422;DHT22;39319;52.944;5.928;2022-11-15T16:58:55;12.20;99.90
53422;DHT22;39319;52.944;5.928;2022-11-15T17:01:29;12.30;99.90
53422;DHT22;39319;52.944;5.928;2022-11-15T17:03:55;12.30;99.90
53422;DHT22;39319;52.944;5.928;2022-11-15T17:06:21;12.30;99.90
53422;DHT22;39319;52.944;5.928;2022-11-15T17:08:47;12.20;99.90
53422;DHT22;39319;52.944;5.928;2022-11-15T17:11:19;12.30;99.90
53422;DHT22;39319;52.944;5.928;2022-11-15T17:13:45;12.30;99.90
53422;DHT22;39319;52.944;5.928;2022-11-15T17:16:13;12.30;99.90
53422;DHT22;39319;52.944;5.928;2022-11-15T17:18:40;12.30;99.90
53422;DHT22;39319;52.944;5.928;2022-11-15T17:21:11;12.30;99.90
53422;DHT22;39319;52.944;5.928;2022-11-15T17:23:37;12.30;99.90
53422;DHT22;39319;52.944;5.928;2022-11-15T17:26:04;12.30;99.70
53422;DHT22;39319;52.944;5.928;2022-11-15T17:28:33;12.30;99.30
53422;DHT22;39319;52.944;5.928;2022-11-15T17:31:00;12.30;99.50
53422;DHT22;39319;52.944;5.928;2022-11-15T17:33:26;12.30;99.80
53422;DHT22;39319;52.944;5.928;2022-11-15T17:36:00;12.30;99.50
53422;DHT22;39319;52.944;5.928;2022-11-15T17:38:26;12.30;99.30
53422;DHT22;39319;52.944;5.928;2022-11-15T17:43:30;12.30;99.20
53422;DHT22;39319;52.944;5.928;2022-11-15T17:45:57;12.40;99.10
53422;DHT22;39319;52.944;5.928;2022-11-15T17:48:23;12.40;99.50
53422;DHT22;39319;52.944;5.928;2022-11-15T17:50:59;12.30;99.30
53422;DHT22;39319;52.944;5.928;2022-11-15T17:53:26;12.40;98.80
53422;DHT22;39319;52.944;5.928;2022-11-15T17:55:52;12.40;98.90
53422;DHT22;39319;52.944;5.928;2022-11-15T17:58:18;12.30;98.90